sensor_id;sensor_type;location;lat;lon;timestamp;temperature;humidity
40696;DHT22;40425;51.102;17.208;2023-04-03T00:02:19;2.00;99.90
40696;DHT22;40425;51.102;17.208;2023-04-03T00:07:20;1.90;99.90
40696;DHT22;40425;51.102;17.208;2023-04-03T00:12:21;1.80;99.90
40696;DHT22;40425;51.102;17.208;2023-04-03T00:17:22;1.80;99.90
40696;DHT22;40425;51.102;17.208;2023-04-03T00:22:23;1.70;99.90
40696;DHT22;40425;51.102;17.208;2023-04-03T00:27:26;1.60;99.90
40696;DHT22;40425;51.102;17.208;2023-04-03T00:32:27;1.60;99.90
40696;DHT22;40425;51.102;17.208;2023-04-03T00:37:28;1.50;99.90
40696;DHT22;40425;51.102;17.208;2023-04-03T00:42:29;1.50;99.90
40696;DHT22;40425;51.102;17.208;2023-04-03T00:47:30;1.50;99.90
40696;DHT22;40425;51.102;17.208;2023-04-03T00:52:31;1.40;99.90
40696;DHT22;40425;51.102;17.208;2023-04-03T00:57:32;1.40;99.90
40696;DHT22;40425;51.102;17.208;2023-04-03T01:02:34;1.30;99.90
40696;DHT22;40425;51.102;17.208;2023-04-03T01:07:35;1.30;99.90
40696;DHT22;40425;51.102;17.208;2023-04-03T01:12:39;1.30;99.90
40696;DHT22;40425;51.102;17.208;2023-04-03T01:17:46;1.30;99.90
40696;DHT22;40425;51.102;17.208;2023-04-03T01:28:05;1.30;99.90
40696;DHT22;40425;51.102;17.208;2023-04-03T01:33:06;1.30;99.90
40696;DHT22;40425;51.102;17.208;2023-04-03T01:38:07;1.30;99.90
40696;DHT22;40425;51.102;17.208;2023-04-03T01:43:08;1.40;99.90
40696;DHT22;40425;51.102;17.208;2023-04-03T01:48:09;1.30;99.90
40696;DHT22;40425;51.102;17.208;2023-04-03T01:53:10;1.40;99.90
40696;DHT22;40425;51.102;17.208;2023-04-03T01:58:11;1.30;99.90
40696;DHT22;40425;51.102;17.208;2023-04-03T02:03:12;1.20;99.90
40696;DHT22;40425;51.102;17.208;2023-04-03T02:08:13;1.20;99.90
40696;DHT22;40425;51.102;17.208;2023-04-03T02:13:15;1.10;99.90
40696;DHT22;40425;51.102;17.208;2023-04-03T02:18:16;1.10;99.90
40696;DHT22;40425;51.102;17.208;2023-04-03T02:23:17;1.10;99.90
40696;DHT22;40425;51.102;17.208;2023-04-03T02:28:18;1.00;99.90
40696;DHT22;40425;51.102;17.208;2023-04-03T02:33:19;1.00;99.90
40696;DHT22;40425;51.102;17.208;2023-04-03T02:38:21;0.90;99.90
40696;DHT22;40425;51.102;17.208;2023-04-03T02:43:22;0.90;99.90
40696;DHT22;40425;51.102;17.208;2023-04-03T02:48:23;0.80;99.90
40696;DHT22;40425;51.102;17.208;2023-04-03T02:53:24;0.80;99.90
40696;DHT22;40425;51.102;17.208;2023-04-03T02:58:25;0.60;99.90
40696;DHT22;40425;51.102;17.208;2023-04-03T03:03:26;0.50;99.90
40696;DHT22;40425;51.102;17.208;2023-04-03T03:08:27;0.40;99.90
40696;DHT22;40425;51.102;17.208;2023-04-03T03:13:28;0.40;99.90
40696;DHT22;40425;51.102;17.208;2023-04-03T03:18:29;0.30;99.90
40696;DHT22;40425;51.102;17.208;2023-04-03T03:23:31;0.30;99.90
40696;DHT22;40425;51.102;17.208;2023-04-03T03:28:32;0.20;99.90
40696;DHT22;40425;51.102;17.208;2023-04-03T03:33:33;0.20;99.90
40696;DHT22;40425;51.102;17.208;2023-04-03T03:38:34;0.20;99.90
40696;DHT22;40425;51.102;17.208;2023-04-03T03:43:35;0.20;99.90
40696;DHT22;40425;51.102;17.208;2023-04-03T03:48:36;0.10;99.90
40696;DHT22;40425;51.102;17.208;2023-04-03T03:53:37;0.10;99.90
40696;DHT22;40425;51.102;17.208;2023-04-03T03:58:38;0.00;99.90
40696;DHT22;40425;51.102;17.208;2023-04-03T04:03:39;0.00;99.90
40696;DHT22;40425;51.102;17.208;2023-04-03T04:08:40;0.00;99.90
40696;DHT22;40425;51.102;17.208;2023-04-03T04:13:41;0.00;99.90
40696;DHT22;40425;51.102;17.208;2023-04-03T04:18:42;-0.10;99.90
40696;DHT22;40425;51.102;17.208;2023-04-03T04:23:43;-0.10;99.90
40696;DHT22;40425;51.102;17.208;2023-04-03T04:28:43;-0.10;99.90
40696;DHT22;40425;51.102;17.208;2023-04-03T04:33:44;-0.10;99.90
40696;DHT22;40425;51.102;17.208;2023-04-03T04:38:45;-0.10;99.90
40696;DHT22;40425;51.102;17.208;2023-04-03T04:43:46;-0.10;99.90
40696;DHT22;40425;51.102;17.208;2023-04-03T04:48:47;-0.10;99.90
40696;DHT22;40425;51.102;17.208;2023-04-03T04:53:48;-0.10;99.90
40696;DHT22;40425;51.102;17.208;2023-04-03T04:58:49;0.00;99.90
40696;DHT22;40425;51.102;17.208;2023-04-03T05:03:50;0.00;99.90
40696;DHT22;40425;51.102;17.208;2023-04-03T05:08:52;0.00;99.90
40696;DHT22;40425;51.102;17.208;2023-04-03T05:13:53;0.00;99.90
40696;DHT22;40425;51.102;17.208;2023-04-03T05:18:53;0.00;99.90
40696;DHT22;40425;51.102;17.208;2023-04-03T05:23:54;0.10;99.90
40696;DHT22;40425;51.102;17.208;2023-04-03T05:28:55;0.10;99.90
40696;DHT22;40425;51.102;17.208;2023-04-03T05:33:57;0.20;99.90
40696;DHT22;40425;51.102;17.208;2023-04-03T05:38:58;0.20;99.90
40696;DHT22;40425;51.102;17.208;2023-04-03T05:43:58;0.30;99.90
40696;DHT22;40425;51.102;17.208;2023-04-03T05:48:59;0.30;99.90
40696;DHT22;40425;51.102;17.208;2023-04-03T05:54:15;0.40;99.90
40696;DHT22;40425;51.102;17.208;2023-04-03T05:59:19;0.50;99.90
40696;DHT22;40425;51.102;17.208;2023-04-03T06:04:20;0.60;99.90
40696;DHT22;40425;51.102;17.208;2023-04-03T06:09:24;0.60;99.90
40696;DHT22;40425;51.102;17.208;2023-04-03T06:14:26;0.70;99.90
40696;DHT22;40425;51.102;17.208;2023-04-03T06:19:27;0.70;99.90
40696;DHT22;40425;51.102;17.208;2023-04-03T06:24:28;0.80;99.90
40696;DHT22;40425;51.102;17.208;2023-04-03T06:29:30;0.80;99.90
40696;DHT22;40425;51.102;17.208;2023-04-03T06:34:31;0.90;99.90
40696;DHT22;40425;51.102;17.208;2023-04-03T06:39:32;1.00;99.90
40696;DHT22;40425;51.102;17.208;2023-04-03T06:44:33;1.20;99.90
40696;DHT22;40425;51.102;17.208;2023-04-03T06:49:35;1.30;99.90
40696;DHT22;40425;51.102;17.208;2023-04-03T06:54:37;1.50;99.90
40696;DHT22;40425;51.102;17.208;2023-04-03T06:59:38;1.60;99.90
40696;DHT22;40425;51.102;17.208;2023-04-03T07:04:40;1.80;99.90
40696;DHT22;40425;51.102;17.208;2023-04-03T07:09:41;1.80;99.90
40696;DHT22;40425;51.102;17.208;2023-04-03T07:14:43;1.70;99.90
40696;DHT22;40425;51.102;17.208;2023-04-03T07:19:44;1.70;99.90
40696;DHT22;40425;51.102;17.208;2023-04-03T07:24:46;2.00;99.90
40696;DHT22;40425;51.102;17.208;2023-04-03T07:29:46;2.10;99.90
40696;DHT22;40425;51.102;17.208;2023-04-03T07:34:49;2.30;99.90
40696;DHT22;40425;51.102;17.208;2023-04-03T07:39:50;2.20;99.90
40696;DHT22;40425;51.102;17.208;2023-04-03T07:44:51;2.30;99.90
40696;DHT22;40425;51.102;17.208;2023-04-03T07:49:52;2.40;99.90
40696;DHT22;40425;51.102;17.208;2023-04-03T07:54:53;2.30;99.90
40696;DHT22;40425;51.102;17.208;2023-04-03T07:59:54;2.40;99.90
40696;DHT22;40425;51.102;17.208;2023-04-03T08:04:54;2.40;99.90
40696;DHT22;40425;51.102;17.208;2023-04-03T08:09:55;2.50;99.90
40696;DHT22;40425;51.102;17.208;2023-04-03T08:14:56;2.70;99.90
40696;DHT22;40425;51.102;17.208;2023-04-03T08:19:57;2.80;99.90
40696;DHT22;40425;51.102;17.208;2023-04-03T08:24:58;2.80;99.90
40696;DHT22;40425;51.102;17.208;2023-04-03T08:30:00;3.20;99.90
40696;DHT22;40425;51.102;17.208;2023-04-03T08:35:05;3.00;99.90
40696;DHT22;40425;51.102;17.208;2023-04-03T08:40:07;3.20;99.90
40696;DHT22;40425;51.102;17.208;2023-04-03T08:45:59;3.30;99.90
40696;DHT22;40425;51.102;17.208;2023-04-03T08:51:08;3.60;99.90
40696;DHT22;40425;51.102;17.208;2023-04-03T08:56:14;3.70;99.90
40696;DHT22;40425;51.102;17.208;2023-04-03T09:01:34;4.10;99.90
40696;DHT22;40425;51.102;17.208;2023-04-03T09:06:36;4.10;99.90
40696;DHT22;40425;51.102;17.208;2023-04-03T09:16:55;4.10;96.00
40696;DHT22;40425;51.102;17.208;2023-04-03T09:22:13;4.30;99.90
40696;DHT22;40425;51.102;17.208;2023-04-03T09:27:16;3.90;97.20
40696;DHT22;40425;51.102;17.208;2023-04-03T09:32:35;3.80;99.90
40696;DHT22;40425;51.102;17.208;2023-04-03T09:37:40;4.00;99.90
40696;DHT22;40425;51.102;17.208;2023-04-03T09:42:42;4.00;99.90
40696;DHT22;40425;51.102;17.208;2023-04-03T09:47:43;4.10;99.90
40696;DHT22;40425;51.102;17.208;2023-04-03T09:52:47;4.40;99.90
40696;DHT22;40425;51.102;17.208;2023-04-03T09:57:50;4.30;99.90
40696;DHT22;40425;51.102;17.208;2023-04-03T10:02:59;4.30;99.40
40696;DHT22;40425;51.102;17.208;2023-04-03T10:13:18;4.30;98.60
40696;DHT22;40425;51.102;17.208;2023-04-03T10:29:13;4.30;97.80
40696;DHT22;40425;51.102;17.208;2023-04-03T10:34:29;4.40;97.20
40696;DHT22;40425;51.102;17.208;2023-04-03T10:45:17;4.70;97.30
40696;DHT22;40425;51.102;17.208;2023-04-03T10:50:36;4.90;95.00
40696;DHT22;40425;51.102;17.208;2023-04-03T10:55:46;4.70;94.90
40696;DHT22;40425;51.102;17.208;2023-04-03T11:00:52;4.50;97.20
40696;DHT22;40425;51.102;17.208;2023-04-03T11:05:55;4.60;99.90
40696;DHT22;40425;51.102;17.208;2023-04-03T11:11:00;5.10;96.90
40696;DHT22;40425;51.102;17.208;2023-04-03T11:16:02;4.60;92.20
40696;DHT22;40425;51.102;17.208;2023-04-03T11:21:11;4.40;95.20
40696;DHT22;40425;51.102;17.208;2023-04-03T11:26:20;5.00;94.10
40696;DHT22;40425;51.102;17.208;2023-04-03T11:31:38;5.30;97.80
40696;DHT22;40425;51.102;17.208;2023-04-03T11:36:56;5.10;94.40
40696;DHT22;40425;51.102;17.208;2023-04-03T11:47:49;5.00;92.10
40696;DHT22;40425;51.102;17.208;2023-04-03T12:02:59;5.20;89.20
40696;DHT22;40425;51.102;17.208;2023-04-03T12:14:01;4.70;85.20
40696;DHT22;40425;51.102;17.208;2023-04-03T12:24:37;5.60;87.30
40696;DHT22;40425;51.102;17.208;2023-04-03T12:30:06;5.20;85.20
40696;DHT22;40425;51.102;17.208;2023-04-03T12:35:31;5.30;83.30
40696;DHT22;40425;51.102;17.208;2023-04-03T12:46:07;5.60;80.80
40696;DHT22;40425;51.102;17.208;2023-04-03T12:51:20;5.20;81.30
40696;DHT22;40425;51.102;17.208;2023-04-03T12:56:31;5.50;86.80
40696;DHT22;40425;51.102;17.208;2023-04-03T13:01:35;5.10;85.40
40696;DHT22;40425;51.102;17.208;2023-04-03T13:06:42;5.60;79.00
40696;DHT22;40425;51.102;17.208;2023-04-03T13:11:44;5.70;86.20
40696;DHT22;40425;51.102;17.208;2023-04-03T13:16:58;5.00;81.80
40696;DHT22;40425;51.102;17.208;2023-04-03T13:22:03;5.20;83.90
40696;DHT22;40425;51.102;17.208;2023-04-03T13:27:06;5.40;77.10
40696;DHT22;40425;51.102;17.208;2023-04-03T13:32:33;5.70;78.40
40696;DHT22;40425;51.102;17.208;2023-04-03T13:37:34;5.80;83.00
40696;DHT22;40425;51.102;17.208;2023-04-03T13:42:37;5.70;81.90
40696;DHT22;40425;51.102;17.208;2023-04-03T13:47:43;5.30;80.20
40696;DHT22;40425;51.102;17.208;2023-04-03T13:53:00;5.50;79.50
40696;DHT22;40425;51.102;17.208;2023-04-03T13:58:29;5.70;80.80
40696;DHT22;40425;51.102;17.208;2023-04-03T14:08:46;5.30;82.00
40696;DHT22;40425;51.102;17.208;2023-04-03T14:13:50;5.70;82.50
40696;DHT22;40425;51.102;17.208;2023-04-03T14:18:51;5.80;75.00
40696;DHT22;40425;51.102;17.208;2023-04-03T14:23:52;5.80;83.10
40696;DHT22;40425;51.102;17.208;2023-04-03T14:28:54;5.40;77.70
40696;DHT22;40425;51.102;17.208;2023-04-03T14:33:56;5.10;82.30
40696;DHT22;40425;51.102;17.208;2023-04-03T14:38:57;5.20;84.20
40696;DHT22;40425;51.102;17.208;2023-04-03T14:43:58;5.70;78.20
40696;DHT22;40425;51.102;17.208;2023-04-03T14:48:59;5.70;75.40
40696;DHT22;40425;51.102;17.208;2023-04-03T14:54:00;5.40;77.60
40696;DHT22;40425;51.102;17.208;2023-04-03T14:59:01;5.20;78.10
40696;DHT22;40425;51.102;17.208;2023-04-03T15:04:12;5.30;80.20
40696;DHT22;40425;51.102;17.208;2023-04-03T15:14:20;5.10;81.90
40696;DHT22;40425;51.102;17.208;2023-04-03T15:19:21;5.10;77.90
40696;DHT22;40425;51.102;17.208;2023-04-03T15:24:22;5.10;77.70
40696;DHT22;40425;51.102;17.208;2023-04-03T15:29:22;5.20;82.80
40696;DHT22;40425;51.102;17.208;2023-04-03T15:34:23;5.30;74.40
40696;DHT22;40425;51.102;17.208;2023-04-03T15:39:25;5.20;73.80
40696;DHT22;40425;51.102;17.208;2023-04-03T15:44:26;5.00;76.10
40696;DHT22;40425;51.102;17.208;2023-04-03T15:49:27;5.00;80.50
40696;DHT22;40425;51.102;17.208;2023-04-03T15:54:28;4.80;81.90
40696;DHT22;40425;51.102;17.208;2023-04-03T15:59:30;4.70;82.10
40696;DHT22;40425;51.102;17.208;2023-04-03T16:04:33;4.70;82.80
40696;DHT22;40425;51.102;17.208;2023-04-03T16:09:35;4.70;83.90
40696;DHT22;40425;51.102;17.208;2023-04-03T16:14:36;4.50;80.10
40696;DHT22;40425;51.102;17.208;2023-04-03T16:19:37;4.40;79.20
40696;DHT22;40425;51.102;17.208;2023-04-03T16:24:38;4.40;80.00
40696;DHT22;40425;51.102;17.208;2023-04-03T16:29:39;4.50;81.00
40696;DHT22;40425;51.102;17.208;2023-04-03T16:34:40;4.40;85.20
40696;DHT22;40425;51.102;17.208;2023-04-03T16:39:42;4.30;85.30
40696;DHT22;40425;51.102;17.208;2023-04-03T16:44:43;4.30;84.40
40696;DHT22;40425;51.102;17.208;2023-04-03T16:49:44;4.30;83.90
40696;DHT22;40425;51.102;17.208;2023-04-03T16:54:45;4.30;84.00
40696;DHT22;40425;51.102;17.208;2023-04-03T16:59:46;4.20;86.60
40696;DHT22;40425;51.102;17.208;2023-04-03T17:04:47;4.20;87.90
40696;DHT22;40425;51.102;17.208;2023-04-03T17:09:50;4.20;87.00
40696;DHT22;40425;51.102;17.208;2023-04-03T17:14:56;4.20;87.30
40696;DHT22;40425;51.102;17.208;2023-04-03T17:19:58;4.10;90.60
40696;DHT22;40425;51.102;17.208;2023-04-03T17:25:02;4.10;90.00
40696;DHT22;40425;51.102;17.208;2023-04-03T17:30:04;4.10;88.80
40696;DHT22;40425;51.102;17.208;2023-04-03T17:35:08;4.00;84.40
40696;DHT22;40425;51.102;17.208;2023-04-03T17:40:09;4.00;84.20
40696;DHT22;40425;51.102;17.208;2023-04-03T17:45:13;3.90;90.30
40696;DHT22;40425;51.102;17.208;2023-04-03T17:50:14;3.90;90.80
40696;DHT22;40425;51.102;17.208;2023-04-03T17:55:17;4.00;90.20
40696;DHT22;40425;51.102;17.208;2023-04-03T18:00:19;3.90;90.80
40696;DHT22;40425;51.102;17.208;2023-04-03T18:05:20;3.90;91.80
40696;DHT22;40425;51.102;17.208;2023-04-03T18:10:21;3.80;91.10
40696;DHT22;40425;51.102;17.208;2023-04-03T18:15:24;3.80;92.60
40696;DHT22;40425;51.102;17.208;2023-04-03T18:20:25;3.80;92.50
40696;DHT22;40425;51.102;17.208;2023-04-03T18:25:26;3.80;91.70
40696;DHT22;40425;51.102;17.208;2023-04-03T18:30:27;3.70;92.70
40696;DHT22;40425;51.102;17.208;2023-04-03T18:35:29;3.70;92.20
40696;DHT22;40425;51.102;17.208;2023-04-03T18:40:32;3.70;93.60
40696;DHT22;40425;51.102;17.208;2023-04-03T18:45:34;3.60;93.00
40696;DHT22;40425;51.102;17.208;2023-04-03T18:50:36;3.60;93.70
40696;DHT22;40425;51.102;17.208;2023-04-03T18:55:37;3.60;94.60
40696;DHT22;40425;51.102;17.208;2023-04-03T19:00:39;3.60;95.30
40696;DHT22;40425;51.102;17.208;2023-04-03T19:05:40;3.60;94.90
40696;DHT22;40425;51.102;17.208;2023-04-03T19:10:41;3.60;95.00
40696;DHT22;40425;51.102;17.208;2023-04-03T19:15:42;3.50;95.10
40696;DHT22;40425;51.102;17.208;2023-04-03T19:20:44;3.50;95.50
40696;DHT22;40425;51.102;17.208;2023-04-03T19:25:46;3.50;95.00
40696;DHT22;40425;51.102;17.208;2023-04-03T19:30:48;3.50;94.80
40696;DHT22;40425;51.102;17.208;2023-04-03T19:35:49;3.50;95.70
40696;DHT22;40425;51.102;17.208;2023-04-03T19:40:50;3.50;95.20
40696;DHT22;40425;51.102;17.208;2023-04-03T19:45:52;3.40;95.80
40696;DHT22;40425;51.102;17.208;2023-04-03T19:50:53;3.40;96.90
40696;DHT22;40425;51.102;17.208;2023-04-03T19:55:55;3.40;96.90
40696;DHT22;40425;51.102;17.208;2023-04-03T20:00:57;3.30;97.40
40696;DHT22;40425;51.102;17.208;2023-04-03T20:05:59;3.20;98.00
40696;DHT22;40425;51.102;17.208;2023-04-03T20:11:01;3.20;98.40
40696;DHT22;40425;51.102;17.208;2023-04-03T20:16:06;3.20;99.90
40696;DHT22;40425;51.102;17.208;2023-04-03T20:21:09;3.20;99.90
40696;DHT22;40425;51.102;17.208;2023-04-03T20:26:19;3.10;99.90
40696;DHT22;40425;51.102;17.208;2023-04-03T20:31:25;3.00;99.80
40696;DHT22;40425;51.102;17.208;2023-04-03T20:36:27;2.90;98.70
40696;DHT22;40425;51.102;17.208;2023-04-03T20:41:32;2.80;99.90
40696;DHT22;40425;51.102;17.208;2023-04-03T20:46:38;2.60;99.90
40696;DHT22;40425;51.102;17.208;2023-04-03T20:51:41;2.50;99.90
40696;DHT22;40425;51.102;17.208;2023-04-03T20:56:43;2.40;99.90
40696;DHT22;40425;51.102;17.208;2023-04-03T21:01:50;2.20;99.90
40696;DHT22;40425;51.102;17.208;2023-04-03T21:23:13;1.50;99.90
40696;DHT22;40425;51.102;17.208;2023-04-03T21:28:15;1.50;99.90
40696;DHT22;40425;51.102;17.208;2023-04-03T21:33:18;1.30;99.90
40696;DHT22;40425;51.102;17.208;2023-04-03T21:38:18;1.30;99.90
40696;DHT22;40425;51.102;17.208;2023-04-03T21:43:20;1.20;99.90
40696;DHT22;40425;51.102;17.208;2023-04-03T21:48:21;1.10;99.90
40696;DHT22;40425;51.102;17.208;2023-04-03T21:53:22;1.10;99.90
40696;DHT22;40425;51.102;17.208;2023-04-03T21:58:28;1.00;99.90
40696;DHT22;40425;51.102;17.208;2023-04-03T22:03:30;0.90;99.90
40696;DHT22;40425;51.102;17.208;2023-04-03T22:08:34;0.80;99.90
40696;DHT22;40425;51.102;17.208;2023-04-03T22:13:36;0.80;99.90
40696;DHT22;40425;51.102;17.208;2023-04-03T22:18:37;0.80;99.90
40696;DHT22;40425;51.102;17.208;2023-04-03T22:23:38;0.70;99.90
40696;DHT22;40425;51.102;17.208;2023-04-03T22:28:44;0.70;99.90
40696;DHT22;40425;51.102;17.208;2023-04-03T22:33:45;0.60;99.90
40696;DHT22;40425;51.102;17.208;2023-04-03T22:38:46;0.60;99.90
40696;DHT22;40425;51.102;17.208;2023-04-03T22:43:46;0.50;99.90
40696;DHT22;40425;51.102;17.208;2023-04-03T22:48:47;0.40;99.90
40696;DHT22;40425;51.102;17.208;2023-04-03T22:53:48;0.30;99.90
40696;DHT22;40425;51.102;17.208;2023-04-03T22:58:49;0.30;99.90
40696;DHT22;40425;51.102;17.208;2023-04-03T23:03:51;0.40;99.90
40696;DHT22;40425;51.102;17.208;2023-04-03T23:08:51;0.30;99.90
40696;DHT22;40425;51.102;17.208;2023-04-03T23:13:52;0.20;99.90
40696;DHT22;40425;51.102;17.208;2023-04-03T23:18:53;0.20;99.90
40696;DHT22;40425;51.102;17.208;2023-04-03T23:23:54;0.10;99.90
40696;DHT22;40425;51.102;17.208;2023-04-03T23:28:55;0.10;99.90
40696;DHT22;40425;51.102;17.208;2023-04-03T23:33:56;0.10;99.90
40696;DHT22;40425;51.102;17.208;2023-04-03T23:38:57;0.10;99.90
40696;DHT22;40425;51.102;17.208;2023-04-03T23:43:57;0.00;99.90
40696;DHT22;40425;51.102;17.208;2023-04-03T23:48:58;0.00;99.90
40696;DHT22;40425;51.102;17.208;2023-04-03T23:53:59;0.00;99.90
40696;DHT22;40425;51.102;17.208;2023-04-03T23:59:00;0.00;99.90
